createdAt,value
2019-01-25T00:00:40.875Z,53.60
2019-01-25T00:01:14.389Z,55.50
2019-01-25T00:01:48.016Z,51.60
2019-01-25T00:02:21.566Z,49.98
2019-01-25T00:02:55.200Z,56.70
2019-01-25T00:03:28.859Z,52.50
2019-01-25T00:04:02.360Z,57.40
2019-01-25T00:04:35.813Z,61.18
2019-01-25T00:05:09.712Z,54.60
2019-01-25T00:05:43.213Z,58.30
2019-01-25T00:06:16.716Z,55.10
2019-01-25T00:06:50.403Z,58.00
2019-01-25T00:07:23.937Z,56.60
2019-01-25T00:07:57.792Z,62.13
2019-01-25T00:08:31.454Z,71.85
2019-01-25T00:09:07.181Z,55.67
2019-01-25T00:09:40.852Z,56.65
2019-01-25T00:10:14.437Z,56.75
2019-01-25T00:10:48.062Z,66.37
2019-01-25T00:11:21.802Z,60.92
2019-01-25T00:11:55.302Z,64.70
2019-01-25T00:12:28.873Z,56.05
2019-01-25T00:13:02.373Z,56.13
2019-01-25T00:13:35.992Z,54.10
2019-01-25T00:14:09.470Z,54.63
2019-01-25T00:14:42.981Z,51.63
2019-01-25T00:15:16.645Z,59.60
2019-01-25T00:15:50.149Z,50.60
2019-01-25T00:16:23.711Z,54.65
2019-01-25T00:16:58.328Z,57.00
2019-01-25T00:17:31.974Z,54.98
2019-01-25T00:18:05.569Z,55.45
2019-01-25T00:18:39.233Z,55.63
2019-01-25T00:19:12.876Z,56.08
2019-01-25T00:19:46.381Z,56.48
2019-01-25T00:20:19.879Z,60.30
2019-01-25T00:20:53.395Z,55.38
2019-01-25T00:21:26.919Z,55.65
2019-01-25T00:22:00.518Z,61.75
2019-01-25T00:22:34.021Z,59.58
2019-01-25T00:23:07.646Z,61.63
2019-01-25T00:23:41.300Z,60.45
2019-01-25T00:24:14.917Z,60.25
2019-01-25T00:24:48.559Z,57.70
2019-01-25T00:25:22.072Z,58.42
2019-01-25T00:25:55.786Z,55.15
2019-01-25T00:26:29.516Z,56.02
2019-01-25T00:27:03.086Z,67.97
2019-01-25T00:27:36.561Z,58.02
2019-01-25T00:28:10.100Z,70.28
2019-01-25T00:28:43.739Z,62.70
2019-01-25T00:29:18.134Z,56.83
2019-01-25T00:29:51.665Z,54.80
2019-01-25T00:30:25.232Z,60.17
2019-01-25T00:30:58.698Z,59.98
2019-01-25T00:31:32.894Z,64.15
2019-01-25T00:32:06.641Z,58.45
2019-01-25T00:32:40.326Z,71.07
2019-01-25T00:33:13.881Z,67.27
2019-01-25T00:33:47.390Z,67.67
2019-01-25T00:34:20.953Z,68.30
2019-01-25T00:34:54.721Z,59.40
2019-01-25T00:35:28.213Z,68.80
2019-01-25T00:36:01.836Z,57.55
2019-01-25T00:36:35.406Z,63.68
2019-01-25T00:37:08.933Z,54.63
2019-01-25T00:37:42.408Z,59.95
2019-01-25T00:38:16.105Z,61.28
2019-01-25T00:38:49.752Z,58.48
2019-01-25T00:39:23.269Z,63.73
2019-01-25T00:39:56.936Z,59.70
2019-01-25T00:40:30.441Z,60.05
2019-01-25T00:41:04.704Z,62.95
2019-01-25T00:41:38.297Z,63.02
2019-01-25T00:42:12.139Z,61.37
2019-01-25T00:42:45.704Z,57.78
2019-01-25T00:43:19.497Z,60.43
2019-01-25T00:43:53.010Z,56.00
2019-01-25T00:44:26.513Z,65.37
2019-01-25T00:45:00.073Z,61.13
2019-01-25T00:45:33.727Z,53.75
2019-01-25T00:46:07.288Z,56.75
2019-01-25T00:46:40.985Z,57.95
2019-01-25T00:47:14.537Z,55.08
2019-01-25T00:47:48.024Z,59.30
2019-01-25T00:48:21.514Z,63.83
2019-01-25T00:48:56.548Z,51.68
2019-01-25T00:49:30.741Z,53.15
2019-01-25T00:50:05.961Z,67.15
2019-01-25T00:50:39.534Z,57.45
2019-01-25T00:51:13.433Z,53.20
2019-01-25T00:51:46.912Z,65.12
2019-01-25T00:52:20.437Z,60.00
2019-01-25T00:52:53.924Z,62.10
2019-01-25T00:53:27.621Z,61.30
2019-01-25T00:54:01.218Z,57.08
2019-01-25T00:54:35.024Z,55.65
2019-01-25T00:55:08.849Z,65.97
2019-01-25T00:55:42.482Z,65.28
2019-01-25T00:56:16.036Z,66.30
2019-01-25T00:56:49.672Z,61.63
2019-01-25T00:57:23.249Z,61.90
2019-01-25T00:57:56.889Z,70.08
2019-01-25T00:58:30.441Z,58.00
2019-01-25T00:59:04.723Z,67.10
2019-01-25T00:59:38.275Z,63.08
2019-01-25T01:00:14.112Z,58.40
2019-01-25T01:00:47.897Z,63.75
2019-01-25T01:01:21.482Z,67.17
2019-01-25T01:01:55.085Z,57.93
2019-01-25T01:02:28.988Z,58.70
2019-01-25T01:03:02.662Z,61.05
2019-01-25T01:03:36.192Z,60.63
2019-01-25T01:04:09.687Z,66.85
2019-01-25T01:04:43.326Z,63.40
2019-01-25T01:05:17.732Z,58.63
2019-01-25T01:05:51.251Z,58.92
2019-01-25T01:06:24.808Z,63.73
2019-01-25T01:06:58.365Z,70.90
2019-01-25T01:07:31.810Z,66.77
2019-01-25T01:08:05.425Z,65.85
2019-01-25T01:08:38.939Z,69.32
2019-01-25T01:09:12.852Z,68.65
2019-01-25T01:09:46.404Z,68.25
2019-01-25T01:10:20.596Z,61.15
2019-01-25T01:10:54.092Z,68.47
2019-01-25T01:11:27.851Z,62.38
2019-01-25T01:12:01.592Z,74.25
2019-01-25T01:12:35.259Z,72.97
2019-01-25T01:13:08.751Z,61.15
2019-01-25T01:13:42.640Z,62.85
2019-01-25T01:14:16.273Z,70.35
2019-01-25T01:14:49.836Z,70.62
2019-01-25T01:15:23.573Z,71.57
2019-01-25T01:15:57.225Z,69.65
2019-01-25T01:16:30.846Z,67.62
2019-01-25T01:17:04.347Z,73.25
2019-01-25T01:17:37.889Z,71.47
2019-01-25T01:18:11.374Z,78.05
2019-01-25T01:18:44.921Z,71.62
2019-01-25T01:19:18.446Z,69.03
2019-01-25T01:19:51.950Z,74.45
2019-01-25T01:20:25.457Z,72.25
2019-01-25T01:20:59.096Z,77.37
2019-01-25T01:21:32.622Z,66.35
2019-01-25T01:22:06.120Z,67.67
2019-01-25T01:22:39.975Z,72.10
2019-01-25T01:23:13.490Z,72.82
2019-01-25T01:23:47.085Z,66.05
2019-01-25T01:24:20.620Z,66.95
2019-01-25T01:24:54.189Z,76.65
2019-01-25T01:25:27.700Z,68.28
2019-01-25T01:26:01.325Z,73.70
2019-01-25T01:26:34.847Z,62.53
2019-01-25T01:27:08.355Z,74.35
2019-01-25T01:27:41.835Z,68.22
2019-01-25T01:28:15.537Z,81.53
2019-01-25T01:28:49.026Z,75.00
2019-01-25T01:29:22.580Z,77.45
2019-01-25T01:29:56.086Z,68.33
2019-01-25T01:30:29.644Z,73.15
2019-01-25T01:31:03.209Z,75.92
2019-01-25T01:31:36.725Z,75.47
2019-01-25T01:32:10.229Z,74.53
2019-01-25T01:32:43.882Z,72.50
2019-01-25T01:33:17.468Z,74.45
2019-01-25T01:33:50.973Z,81.40
2019-01-25T01:34:24.496Z,69.40
2019-01-25T01:34:58.015Z,79.87
2019-01-25T01:35:31.528Z,76.35
2019-01-25T01:36:05.246Z,75.70
2019-01-25T01:36:38.690Z,80.65
2019-01-25T01:37:12.193Z,75.60
2019-01-25T01:37:45.715Z,69.95
2019-01-25T01:38:19.223Z,77.45
2019-01-25T01:38:52.815Z,72.05
2019-01-25T01:39:26.333Z,74.53
2019-01-25T01:39:59.814Z,69.30
2019-01-25T01:40:33.516Z,66.28
2019-01-25T01:41:07.068Z,77.30
2019-01-25T01:41:40.568Z,70.15
2019-01-25T01:42:14.293Z,73.92
2019-01-25T01:42:48.069Z,69.67
2019-01-25T01:43:21.677Z,68.65
2019-01-25T01:43:55.380Z,80.10
2019-01-25T01:44:28.905Z,68.33
2019-01-25T01:45:02.418Z,77.17
2019-01-25T01:45:35.904Z,76.87
2019-01-25T01:46:09.388Z,82.75
2019-01-25T01:46:42.984Z,77.97
2019-01-25T01:47:17.435Z,71.62
2019-01-25T01:47:51.278Z,66.72
2019-01-25T01:48:24.805Z,77.87
2019-01-25T01:48:58.350Z,77.00
2019-01-25T01:49:31.870Z,71.40
2019-01-25T01:50:05.939Z,74.27
2019-01-25T01:50:39.437Z,81.37
2019-01-25T01:51:13.229Z,81.82
2019-01-25T01:51:46.737Z,67.42
2019-01-25T01:52:20.248Z,72.82
2019-01-25T01:52:53.685Z,79.90
2019-01-25T01:53:27.191Z,77.55
2019-01-25T01:54:00.707Z,71.55
2019-01-25T01:54:34.363Z,79.77
2019-01-25T01:55:08.337Z,77.97
2019-01-25T01:55:41.815Z,81.08
2019-01-25T01:56:15.356Z,73.80
2019-01-25T01:56:48.921Z,71.75
2019-01-25T01:57:22.428Z,79.15
2019-01-25T01:57:56.117Z,70.37
2019-01-25T01:58:29.708Z,76.53
2019-01-25T01:59:03.238Z,79.85
2019-01-25T01:59:36.717Z,80.55
2019-01-25T02:00:15.076Z,79.15
2019-01-25T02:00:48.693Z,78.57
2019-01-25T02:01:22.645Z,71.92
2019-01-25T02:01:56.249Z,76.92
2019-01-25T02:02:29.906Z,74.58
2019-01-25T02:03:03.670Z,81.80
2019-01-25T02:03:37.225Z,77.53
2019-01-25T02:04:10.784Z,76.33
2019-01-25T02:04:44.306Z,71.92
2019-01-25T02:05:18.141Z,73.78
2019-01-25T02:05:51.784Z,74.75
2019-01-25T02:06:25.366Z,76.17
2019-01-25T02:06:58.922Z,80.28
2019-01-25T02:07:32.469Z,69.12
2019-01-25T02:08:06.108Z,71.77
2019-01-25T02:08:39.751Z,67.27
2019-01-25T02:09:13.320Z,77.67
2019-01-25T02:09:46.797Z,74.22
2019-01-25T02:10:29.826Z,73.42
2019-01-25T02:11:03.505Z,77.40
2019-01-25T02:11:37.167Z,72.42
2019-01-25T02:12:12.196Z,73.62
2019-01-25T02:12:45.779Z,68.83
2019-01-25T02:13:19.292Z,68.02
2019-01-25T02:13:52.893Z,70.95
2019-01-25T02:14:26.553Z,73.62
2019-01-25T02:15:00.042Z,69.80
2019-01-25T02:15:33.656Z,74.22
2019-01-25T02:16:07.241Z,71.92
2019-01-25T02:16:40.946Z,76.82
2019-01-25T02:17:14.551Z,73.57
2019-01-25T02:17:48.794Z,75.75
2019-01-25T02:18:26.681Z,65.10
2019-01-25T02:19:02.140Z,74.65
2019-01-25T02:19:35.648Z,70.32
2019-01-25T02:20:10.474Z,75.15
2019-01-25T02:20:44.030Z,72.78
2019-01-25T02:21:19.089Z,69.00
2019-01-25T02:21:54.072Z,78.15
2019-01-25T02:22:27.659Z,73.75
2019-01-25T02:23:01.214Z,73.05
2019-01-25T02:23:34.769Z,77.87
2019-01-25T02:24:08.253Z,70.50
2019-01-25T02:24:48.967Z,74.47
2019-01-25T02:25:22.622Z,80.95
2019-01-25T02:25:56.112Z,80.00
2019-01-25T02:26:31.156Z,75.60
2019-01-25T02:27:04.779Z,73.70
2019-01-25T02:27:38.332Z,70.08
2019-01-25T02:28:11.848Z,80.32
2019-01-25T02:28:45.610Z,79.53
2019-01-25T02:29:19.243Z,68.75
2019-01-25T02:30:00.919Z,78.55
2019-01-25T02:30:34.410Z,78.65
2019-01-25T02:31:07.997Z,71.33
2019-01-25T02:31:41.557Z,81.02
2019-01-25T02:32:15.041Z,81.50
2019-01-25T02:32:48.713Z,76.80
2019-01-25T02:33:24.207Z,80.72
2019-01-25T02:33:57.768Z,81.00
2019-01-25T02:34:31.257Z,78.65
2019-01-25T02:35:05.239Z,71.15
2019-01-25T02:35:38.883Z,78.20
2019-01-25T02:36:12.490Z,75.08
2019-01-25T02:36:46.190Z,66.47
2019-01-25T02:37:21.597Z,71.70
2019-01-25T02:37:58.007Z,73.80
2019-01-25T02:38:31.672Z,79.03
2019-01-25T02:39:07.464Z,76.65
2019-01-25T02:39:41.040Z,75.40
2019-01-25T02:40:15.996Z,68.05
2019-01-25T02:40:49.598Z,74.05
2019-01-25T02:41:23.089Z,76.20
2019-01-25T02:41:56.660Z,78.70
2019-01-25T02:42:30.885Z,76.05
2019-01-25T02:43:04.692Z,77.97
2019-01-25T02:43:38.190Z,80.28
2019-01-25T02:44:11.893Z,72.03
2019-01-25T02:44:45.591Z,80.60
2019-01-25T02:45:20.224Z,78.22
2019-01-25T02:45:53.765Z,76.60
2019-01-25T02:46:27.248Z,68.83
2019-01-25T02:47:01.272Z,78.75
2019-01-25T02:47:34.862Z,75.05
2019-01-25T02:48:08.680Z,80.83
2019-01-25T02:48:42.249Z,76.97
2019-01-25T02:49:16.165Z,72.47
2019-01-25T02:49:49.682Z,81.45
2019-01-25T02:50:23.227Z,77.87
2019-01-25T02:50:57.249Z,79.72
2019-01-25T02:51:30.796Z,86.70
2019-01-25T02:52:04.563Z,74.03
2019-01-25T02:52:38.179Z,77.00
2019-01-25T02:53:11.772Z,69.50
2019-01-25T02:53:45.348Z,79.25
2019-01-25T02:54:18.843Z,74.80
2019-01-25T02:54:52.343Z,83.90
2019-01-25T02:55:26.562Z,78.28
2019-01-25T02:56:00.306Z,81.45
2019-01-25T02:56:33.785Z,79.87
2019-01-25T02:57:07.293Z,76.15
2019-01-25T02:57:40.916Z,79.77
2019-01-25T02:58:14.402Z,80.95
2019-01-25T02:58:47.830Z,69.45
2019-01-25T02:59:21.517Z,76.20
2019-01-25T02:59:55.005Z,78.83
2019-01-25T03:00:28.841Z,73.62
2019-01-25T03:01:02.356Z,74.27
2019-01-25T03:01:35.829Z,82.17
2019-01-25T03:02:08.899Z,80.50
2019-01-25T03:02:42.557Z,74.07
2019-01-25T03:03:16.040Z,73.83
2019-01-25T03:03:49.567Z,82.62
2019-01-25T03:04:23.213Z,71.53
2019-01-25T03:04:56.708Z,87.60
2019-01-25T03:05:30.202Z,73.40
2019-01-25T03:06:03.680Z,80.57
2019-01-25T03:06:37.207Z,86.67
2019-01-25T03:07:10.732Z,78.25
2019-01-25T03:07:44.280Z,78.78
2019-01-25T03:08:17.934Z,78.00
2019-01-25T03:08:51.417Z,77.72
2019-01-25T03:09:24.887Z,74.55
2019-01-25T03:09:58.373Z,77.85
2019-01-25T03:10:31.862Z,86.32
2019-01-25T03:11:05.449Z,80.50
2019-01-25T03:11:38.933Z,83.62
2019-01-25T03:12:12.438Z,84.32
2019-01-25T03:12:45.954Z,85.77
2019-01-25T03:13:19.450Z,81.70
2019-01-25T03:13:52.929Z,78.52
2019-01-25T03:14:26.434Z,72.78
2019-01-25T03:14:59.909Z,82.20
2019-01-25T03:15:33.572Z,75.97
2019-01-25T03:16:07.138Z,78.75
2019-01-25T03:16:40.626Z,81.67
2019-01-25T03:17:14.460Z,81.25
2019-01-25T03:17:48.372Z,79.42
2019-01-25T03:18:21.925Z,81.12
2019-01-25T03:18:55.769Z,80.05
2019-01-25T03:19:29.477Z,84.47
2019-01-25T03:20:03.070Z,79.58
2019-01-25T03:20:36.791Z,87.53
2019-01-25T03:21:10.341Z,82.05
2019-01-25T03:21:43.824Z,77.82
2019-01-25T03:22:17.301Z,78.42
2019-01-25T03:22:50.806Z,82.57
2019-01-25T03:23:25.082Z,82.20
2019-01-25T03:23:58.654Z,89.07
2019-01-25T03:24:32.135Z,90.30
2019-01-25T03:25:06.274Z,86.97
2019-01-25T03:25:40.031Z,83.37
2019-01-25T03:26:13.629Z,87.02
2019-01-25T03:26:49.007Z,85.40
2019-01-25T03:27:22.707Z,78.72
2019-01-25T03:27:56.245Z,81.47
2019-01-25T03:28:30.347Z,81.37
2019-01-25T03:29:04.127Z,82.45
2019-01-25T03:29:37.622Z,82.95
2019-01-25T03:30:12.331Z,88.82
2019-01-25T03:30:45.874Z,83.03
2019-01-25T03:31:38.473Z,78.17
2019-01-25T03:32:12.297Z,72.20
2019-01-25T03:32:45.842Z,78.02
2019-01-25T03:33:19.993Z,80.22
2019-01-25T03:33:53.517Z,80.62
2019-01-25T03:34:27.429Z,68.40
2019-01-25T03:35:20.045Z,82.60
2019-01-25T03:35:53.613Z,81.82
2019-01-25T03:36:27.097Z,75.70
2019-01-25T03:37:00.590Z,78.87
2019-01-25T03:37:34.087Z,90.07
2019-01-25T03:38:08.415Z,89.10
2019-01-25T03:38:41.934Z,81.05
2019-01-25T03:39:15.493Z,76.72
2019-01-25T03:39:49.466Z,73.35
2019-01-25T03:40:42.120Z,79.87
2019-01-25T03:41:16.090Z,79.15
2019-01-25T03:42:09.051Z,82.53
2019-01-25T03:42:42.568Z,78.22
2019-01-25T03:43:16.326Z,80.95
2019-01-25T03:43:49.851Z,76.33
2019-01-25T03:44:23.388Z,80.30
2019-01-25T03:44:57.839Z,74.27
2019-01-25T03:45:31.325Z,88.60
2019-01-25T03:46:05.114Z,77.45
2019-01-25T03:46:39.233Z,83.05
2019-01-25T03:47:12.733Z,78.10
2019-01-25T03:47:46.321Z,76.87
2019-01-25T03:48:20.404Z,78.28
2019-01-25T03:48:55.622Z,70.57
2019-01-25T03:49:29.930Z,83.60
2019-01-25T03:50:04.628Z,78.17
2019-01-25T03:50:39.373Z,84.52
2019-01-25T03:51:13.586Z,77.20
2019-01-25T03:51:47.852Z,76.77
2019-01-25T03:52:21.397Z,77.12
2019-01-25T03:52:56.106Z,86.05
2019-01-25T03:53:29.682Z,85.40
2019-01-25T03:54:03.385Z,82.65
2019-01-25T03:54:37.614Z,79.87
2019-01-25T03:55:11.706Z,86.53
2019-01-25T03:55:45.527Z,83.05
2019-01-25T03:56:19.002Z,88.87
2019-01-25T03:56:52.603Z,73.02
2019-01-25T03:57:27.685Z,82.45
2019-01-25T03:58:01.362Z,83.07
2019-01-25T03:58:36.023Z,94.62
2019-01-25T03:59:09.877Z,92.15
2019-01-25T03:59:44.752Z,84.58
2019-01-25T04:00:20.216Z,95.80
2019-01-25T04:00:54.627Z,81.63
2019-01-25T04:01:28.398Z,85.22
2019-01-25T04:02:02.421Z,75.40
2019-01-25T04:02:36.372Z,98.15
2019-01-25T04:03:10.188Z,94.25
2019-01-25T04:03:44.741Z,80.50
2019-01-25T04:04:18.524Z,82.35
2019-01-25T04:04:52.510Z,86.63
2019-01-25T04:05:27.215Z,79.55
2019-01-25T04:06:00.969Z,86.87
2019-01-25T04:06:35.464Z,85.17
2019-01-25T04:07:09.026Z,81.10
2019-01-25T04:07:43.952Z,79.67
2019-01-25T04:08:18.409Z,76.35
2019-01-25T04:08:52.948Z,85.83
2019-01-25T04:09:26.509Z,82.90
2019-01-25T04:10:00.588Z,83.82
2019-01-25T04:10:34.381Z,86.50
2019-01-25T04:11:09.876Z,87.12
2019-01-25T04:11:44.077Z,81.90
2019-01-25T04:12:18.320Z,82.65
2019-01-25T04:12:52.251Z,82.55
2019-01-25T04:13:26.536Z,79.20
2019-01-25T04:14:00.447Z,77.87
2019-01-25T04:14:34.252Z,83.45
2019-01-25T04:15:09.710Z,81.15
2019-01-25T04:15:44.124Z,81.75
2019-01-25T04:16:19.027Z,80.97
2019-01-25T04:16:53.707Z,73.52
2019-01-25T04:17:27.641Z,71.50
2019-01-25T04:18:02.772Z,82.22
2019-01-25T04:18:36.841Z,74.60
2019-01-25T04:19:10.753Z,74.10
2019-01-25T04:19:44.254Z,83.72
2019-01-25T04:20:18.096Z,81.65
2019-01-25T04:20:52.111Z,77.80
2019-01-25T04:21:27.885Z,88.00
2019-01-25T04:22:02.622Z,83.17
2019-01-25T04:22:37.456Z,81.28
2019-01-25T04:23:12.254Z,79.75
2019-01-25T04:23:45.772Z,79.32
2019-01-25T04:24:20.923Z,77.90
2019-01-25T04:24:55.466Z,77.87
2019-01-25T04:25:31.084Z,84.95
2019-01-25T04:26:05.698Z,84.52
2019-01-25T04:26:40.782Z,83.45
2019-01-25T04:27:15.460Z,75.25
2019-01-25T04:27:49.056Z,81.35
2019-01-25T04:28:23.148Z,76.05
2019-01-25T04:28:58.509Z,84.62
2019-01-25T04:29:32.930Z,83.25
2019-01-25T04:30:08.102Z,80.03
2019-01-25T04:30:42.252Z,84.85
2019-01-25T04:31:16.857Z,82.27
2019-01-25T04:31:51.064Z,86.50
2019-01-25T04:32:26.393Z,78.15
2019-01-25T04:33:00.880Z,83.58
2019-01-25T04:33:34.681Z,75.52
2019-01-25T04:34:09.568Z,76.22
2019-01-25T04:34:43.947Z,83.95
2019-01-25T04:35:17.765Z,83.87
2019-01-25T04:35:52.323Z,85.25
2019-01-25T04:36:26.213Z,83.45
2019-01-25T04:37:00.447Z,85.10
2019-01-25T04:37:36.054Z,74.12
2019-01-25T04:38:09.616Z,84.42
2019-01-25T04:38:44.443Z,84.72
2019-01-25T04:39:18.134Z,85.25
2019-01-25T04:39:52.865Z,76.80
2019-01-25T04:40:26.804Z,75.47
2019-01-25T04:41:00.310Z,75.37
2019-01-25T04:41:35.905Z,74.62
2019-01-25T04:42:09.439Z,86.15
2019-01-25T04:42:43.759Z,82.92
2019-01-25T04:43:17.285Z,87.25
2019-01-25T04:43:50.789Z,85.28
2019-01-25T04:44:24.914Z,85.07
2019-01-25T04:44:58.453Z,79.85
2019-01-25T04:45:31.992Z,83.25
2019-01-25T04:46:05.637Z,87.10
2019-01-25T04:46:39.167Z,87.50
2019-01-25T04:47:13.115Z,86.02
2019-01-25T04:47:46.971Z,80.35
2019-01-25T04:48:21.135Z,77.62
2019-01-25T04:48:55.212Z,84.15
2019-01-25T04:49:31.508Z,93.00
2019-01-25T04:50:07.205Z,79.65
2019-01-25T04:50:40.745Z,81.20
2019-01-25T04:51:14.373Z,85.57
2019-01-25T04:51:48.465Z,86.82
2019-01-25T04:52:22.613Z,89.55
2019-01-25T04:52:56.913Z,86.60
2019-01-25T04:53:33.092Z,78.42
2019-01-25T04:54:07.329Z,73.47
2019-01-25T04:54:41.575Z,91.40
2019-01-25T04:55:19.077Z,79.85
2019-01-25T04:55:52.576Z,76.60
2019-01-25T04:56:26.796Z,81.10
2019-01-25T04:57:01.554Z,88.33
2019-01-25T04:57:35.176Z,86.47
2019-01-25T04:58:10.088Z,78.67
2019-01-25T04:58:44.011Z,80.97
2019-01-25T04:59:18.078Z,82.97
2019-01-25T04:59:52.915Z,77.75
2019-01-25T05:00:27.052Z,84.03
2019-01-25T05:01:06.206Z,85.83
2019-01-25T05:01:39.940Z,81.75
2019-01-25T05:02:13.436Z,82.12
2019-01-25T05:02:51.869Z,88.75
2019-01-25T05:03:25.661Z,84.55
2019-01-25T05:03:59.448Z,78.42
2019-01-25T05:04:36.096Z,86.08
2019-01-25T05:05:09.658Z,87.78
2019-01-25T05:05:43.320Z,85.53
2019-01-25T05:06:17.620Z,85.42
2019-01-25T05:06:51.406Z,85.67
2019-01-25T05:07:25.449Z,86.53
2019-01-25T05:08:03.247Z,88.05
2019-01-25T05:08:36.818Z,89.75
2019-01-25T05:09:10.482Z,91.25
2019-01-25T05:09:44.040Z,86.10
2019-01-25T05:10:17.536Z,86.90
2019-01-25T05:10:51.474Z,84.28
2019-01-25T05:11:25.038Z,90.67
2019-01-25T05:11:58.531Z,78.17
2019-01-25T05:12:32.069Z,84.07
2019-01-25T05:13:05.776Z,89.87
2019-01-25T05:13:39.326Z,88.62
2019-01-25T05:14:12.954Z,76.30
2019-01-25T05:14:46.482Z,81.90
2019-01-25T05:15:20.060Z,95.40
2019-01-25T05:15:53.585Z,97.45
2019-01-25T05:16:27.096Z,93.72
2019-01-25T05:17:00.617Z,85.65
2019-01-25T05:17:34.182Z,87.95
2019-01-25T05:18:08.093Z,83.52
2019-01-25T05:18:41.593Z,81.65
2019-01-25T05:19:15.089Z,85.83
2019-01-25T05:19:48.645Z,86.22
2019-01-25T05:20:22.327Z,85.28
2019-01-25T05:20:55.832Z,83.65
2019-01-25T05:21:29.429Z,85.22
2019-01-25T05:22:02.935Z,90.95
2019-01-25T05:22:36.503Z,95.75
2019-01-25T05:23:10.274Z,80.50
2019-01-25T05:23:43.779Z,81.37
2019-01-25T05:24:17.328Z,84.92
2019-01-25T05:24:50.882Z,83.33
2019-01-25T05:25:25.033Z,83.30
2019-01-25T05:25:58.455Z,91.90
2019-01-25T05:26:31.993Z,88.45
2019-01-25T05:27:05.640Z,92.37
2019-01-25T05:27:39.219Z,89.07
2019-01-25T05:28:16.553Z,83.37
2019-01-25T05:28:50.062Z,79.67
2019-01-25T05:29:24.456Z,86.05
2019-01-25T05:29:58.022Z,88.05
2019-01-25T05:30:31.529Z,96.47
2019-01-25T05:31:06.026Z,86.82
2019-01-25T05:31:39.514Z,93.35
2019-01-25T05:32:13.000Z,86.15
2019-01-25T05:32:46.520Z,91.63
2019-01-25T05:33:20.037Z,85.25
2019-01-25T05:33:54.358Z,92.72
2019-01-25T05:34:28.006Z,88.82
2019-01-25T05:35:01.559Z,82.92
2019-01-25T05:35:35.442Z,88.22
2019-01-25T05:36:09.077Z,97.95
2019-01-25T05:36:42.621Z,92.37
2019-01-25T05:37:16.116Z,86.47
2019-01-25T05:37:49.868Z,92.17
2019-01-25T05:38:23.433Z,94.85
2019-01-25T05:38:57.092Z,88.45
2019-01-25T05:39:31.015Z,92.08
2019-01-25T05:40:05.327Z,97.27
2019-01-25T05:40:38.844Z,94.87
2019-01-25T05:41:12.334Z,84.13
2019-01-25T05:41:48.941Z,87.95
2019-01-25T05:42:22.548Z,90.75
2019-01-25T05:42:56.057Z,87.53
2019-01-25T05:43:36.917Z,90.28
2019-01-25T05:44:10.437Z,90.80
2019-01-25T05:44:44.092Z,87.00
2019-01-25T05:45:18.119Z,82.27
2019-01-25T05:45:51.757Z,85.20
2019-01-25T05:46:25.377Z,83.42
2019-01-25T05:46:59.056Z,95.60
2019-01-25T05:47:32.659Z,101.82
2019-01-25T05:48:06.230Z,84.67
2019-01-25T05:48:39.758Z,91.20
2019-01-25T05:49:13.475Z,81.63
2019-01-25T05:49:46.980Z,85.07
2019-01-25T05:50:20.610Z,89.37
2019-01-25T05:50:55.629Z,96.65
2019-01-25T05:51:33.535Z,93.33
2019-01-25T05:52:05.368Z,88.72
2019-01-25T05:52:39.020Z,85.30
2019-01-25T05:53:12.507Z,85.60
2019-01-25T05:53:52.882Z,94.40
2019-01-25T05:54:26.556Z,89.75
2019-01-25T05:55:00.098Z,92.42
2019-01-25T05:55:33.997Z,92.10
2019-01-25T05:56:07.593Z,87.35
2019-01-25T05:56:44.334Z,89.77
2019-01-25T05:57:17.859Z,86.85
2019-01-25T05:57:54.774Z,81.37
2019-01-25T05:58:28.323Z,91.08
2019-01-25T05:59:01.841Z,84.77
2019-01-25T05:59:35.325Z,78.45
2019-01-25T06:00:10.900Z,86.15
2019-01-25T06:00:44.533Z,84.62
2019-01-25T06:01:18.230Z,93.00
2019-01-25T06:01:51.833Z,88.10
2019-01-25T06:02:25.512Z,91.20
2019-01-25T06:03:05.489Z,92.17
2019-01-25T06:03:39.008Z,79.35
2019-01-25T06:04:12.660Z,87.00
2019-01-25T06:04:46.201Z,83.92
2019-01-25T06:05:19.787Z,92.53
2019-01-25T06:05:59.244Z,80.05
2019-01-25T06:06:32.833Z,83.80
2019-01-25T06:07:06.463Z,89.03
2019-01-25T06:07:40.051Z,83.58
2019-01-25T06:08:30.278Z,79.80
2019-01-25T06:09:05.330Z,89.35
2019-01-25T06:09:38.911Z,82.50
2019-01-25T06:10:12.496Z,87.67
2019-01-25T06:10:46.007Z,84.77
2019-01-25T06:11:19.480Z,82.00
2019-01-25T06:11:52.969Z,84.25
2019-01-25T06:12:26.500Z,90.50
2019-01-25T06:12:59.985Z,82.05
2019-01-25T06:13:33.525Z,87.15
2019-01-25T06:14:07.993Z,94.97
2019-01-25T06:14:41.478Z,82.35
2019-01-25T06:15:15.014Z,94.75
2019-01-25T06:15:48.530Z,88.07
2019-01-25T06:16:22.104Z,83.03
2019-01-25T06:16:55.606Z,86.70
2019-01-25T06:17:29.264Z,82.12
2019-01-25T06:18:03.307Z,84.25
2019-01-25T06:18:36.832Z,85.30
2019-01-25T06:19:10.317Z,88.60
2019-01-25T06:19:43.811Z,88.70
2019-01-25T06:20:17.397Z,81.22
2019-01-25T06:20:54.579Z,80.65
2019-01-25T06:21:28.145Z,84.10
2019-01-25T06:22:01.768Z,82.50
2019-01-25T06:22:35.377Z,87.17
2019-01-25T06:23:08.944Z,86.65
2019-01-25T06:23:42.454Z,94.90
2019-01-25T06:24:15.972Z,84.92
2019-01-25T06:24:49.486Z,75.52
2019-01-25T06:25:23.002Z,78.70
2019-01-25T06:25:57.389Z,85.00
2019-01-25T06:26:30.945Z,73.37
2019-01-25T06:27:04.670Z,84.37
2019-01-25T06:27:38.371Z,90.55
2019-01-25T06:28:11.932Z,83.00
2019-01-25T06:28:50.261Z,85.87
2019-01-25T06:29:23.789Z,89.92
2019-01-25T06:29:57.427Z,96.32
2019-01-25T06:30:31.158Z,87.62
2019-01-25T06:31:05.152Z,88.92
2019-01-25T06:31:39.215Z,86.22
2019-01-25T06:32:13.108Z,82.90
2019-01-25T06:32:46.700Z,86.45
2019-01-25T06:33:20.247Z,81.08
2019-01-25T06:33:53.837Z,88.67
2019-01-25T06:34:27.446Z,97.33
2019-01-25T06:35:01.276Z,94.75
2019-01-25T06:35:34.811Z,89.65
2019-01-25T06:36:08.563Z,88.47
2019-01-25T06:36:42.105Z,86.45
2019-01-25T06:37:15.638Z,90.92
2019-01-25T06:37:49.417Z,85.80
2019-01-25T06:38:23.198Z,89.83
2019-01-25T06:38:56.799Z,84.65
2019-01-25T06:39:30.604Z,91.32
2019-01-25T06:40:05.009Z,92.95
2019-01-25T06:40:38.583Z,91.45
2019-01-25T06:41:12.163Z,86.80
2019-01-25T06:41:45.699Z,94.28
2019-01-25T06:42:19.185Z,82.85
2019-01-25T06:42:52.693Z,89.17
2019-01-25T06:43:26.326Z,90.03
2019-01-25T06:43:59.933Z,86.35
2019-01-25T06:44:33.550Z,94.25
2019-01-25T06:45:07.197Z,90.70
2019-01-25T06:45:40.729Z,97.08
2019-01-25T06:46:14.253Z,97.35
2019-01-25T06:46:47.940Z,90.47
2019-01-25T06:47:21.474Z,90.80
2019-01-25T06:47:55.048Z,91.65
2019-01-25T06:48:28.694Z,91.40
2019-01-25T06:49:02.226Z,82.62
2019-01-25T06:49:35.808Z,88.65
2019-01-25T06:50:09.320Z,102.10
2019-01-25T06:50:42.826Z,83.55
2019-01-25T06:51:16.401Z,82.05
2019-01-25T06:51:49.904Z,87.62
2019-01-25T06:52:23.521Z,80.45
2019-01-25T06:52:57.026Z,93.92
2019-01-25T06:53:30.545Z,92.85
2019-01-25T06:54:04.102Z,95.32
2019-01-25T06:54:37.679Z,91.22
2019-01-25T06:55:11.175Z,84.62
2019-01-25T06:55:44.696Z,87.20
2019-01-25T06:56:18.229Z,91.65
2019-01-25T06:56:51.850Z,99.85
2019-01-25T06:57:47.595Z,92.20
2019-01-25T06:58:49.139Z,88.27
2019-01-25T06:59:33.253Z,87.82
2019-01-25T07:00:07.785Z,83.12
2019-01-25T07:00:45.617Z,92.65
2019-01-25T07:01:23.781Z,97.00
2019-01-25T07:02:16.460Z,85.90
2019-01-25T07:02:49.957Z,83.82
2019-01-25T07:03:23.608Z,82.53
2019-01-25T07:03:57.183Z,85.77
2019-01-25T07:04:30.717Z,91.30
2019-01-25T07:05:04.334Z,85.80
2019-01-25T07:05:37.820Z,89.03
2019-01-25T07:06:14.438Z,83.03
2019-01-25T07:06:47.939Z,81.08
2019-01-25T07:07:26.002Z,85.75
2019-01-25T07:07:59.400Z,92.80
2019-01-25T07:08:32.923Z,81.92
2019-01-25T07:09:10.172Z,88.55
2019-01-25T07:09:43.598Z,91.75
2019-01-25T07:10:17.803Z,89.07
2019-01-25T07:10:51.364Z,78.30
2019-01-25T07:11:24.892Z,83.27
2019-01-25T07:11:58.491Z,83.60
2019-01-25T07:12:32.008Z,84.92
2019-01-25T07:13:05.599Z,78.60
2019-01-25T07:13:39.076Z,85.42
2019-01-25T07:14:12.591Z,78.28
2019-01-25T07:14:46.072Z,79.07
2019-01-25T07:15:22.221Z,78.87
2019-01-25T07:15:55.711Z,77.65
2019-01-25T07:16:29.249Z,73.70
2019-01-25T07:17:02.815Z,74.35
2019-01-25T07:17:36.314Z,70.85
2019-01-25T07:18:09.824Z,81.70
2019-01-25T07:18:43.344Z,78.25
2019-01-25T07:19:16.858Z,74.20
2019-01-25T07:19:50.490Z,74.72
2019-01-25T07:20:23.993Z,79.37